sensor_id;sensor_type;location;lat;lon;timestamp;temperature;humidity
62464;SHT31;48512;48.552;9.380;2022-09-12T00:01:17;13.68;84.22
62464;SHT31;48512;48.552;9.380;2022-09-12T00:03:44;13.74;84.02
62464;SHT31;48512;48.552;9.380;2022-09-12T00:06:12;13.75;84.21
62464;SHT31;48512;48.552;9.380;2022-09-12T00:08:39;13.74;84.18
62464;SHT31;48512;48.552;9.380;2022-09-12T00:11:08;13.72;83.81
62464;SHT31;48512;48.552;9.380;2022-09-12T00:13:34;13.69;83.17
62464;SHT31;48512;48.552;9.380;2022-09-12T00:15:59;13.69;82.82
62464;SHT31;48512;48.552;9.380;2022-09-12T00:18:25;13.65;82.73
62464;SHT31;48512;48.552;9.380;2022-09-12T00:20:51;13.58;82.76
62464;SHT31;48512;48.552;9.380;2022-09-12T00:23:16;13.53;82.69
62464;SHT31;48512;48.552;9.380;2022-09-12T00:25:46;13.48;82.99
62464;SHT31;48512;48.552;9.380;2022-09-12T00:28:13;13.54;82.59
62464;SHT31;48512;48.552;9.380;2022-09-12T00:30:43;13.48;82.67
62464;SHT31;48512;48.552;9.380;2022-09-12T00:33:10;13.51;82.69
62464;SHT31;48512;48.552;9.380;2022-09-12T00:35:46;13.47;82.46
62464;SHT31;48512;48.552;9.380;2022-09-12T00:38:14;13.43;82.48
62464;SHT31;48512;48.552;9.380;2022-09-12T00:40:40;13.34;82.91
62464;SHT31;48512;48.552;9.380;2022-09-12T00:43:31;13.37;82.70
62464;SHT31;48512;48.552;9.380;2022-09-12T00:45:56;13.30;82.78
62464;SHT31;48512;48.552;9.380;2022-09-12T00:48:32;13.30;82.77
62464;SHT31;48512;48.552;9.380;2022-09-12T00:50:58;13.20;83.11
62464;SHT31;48512;48.552;9.380;2022-09-12T00:53:24;13.20;83.22
62464;SHT31;48512;48.552;9.380;2022-09-12T00:55:51;13.17;83.30
62464;SHT31;48512;48.552;9.380;2022-09-12T00:58:23;13.13;83.74
62464;SHT31;48512;48.552;9.380;2022-09-12T01:00:49;13.06;84.02
62464;SHT31;48512;48.552;9.380;2022-09-12T01:03:19;13.04;84.18
62464;SHT31;48512;48.552;9.380;2022-09-12T01:05:55;13.03;84.27
62464;SHT31;48512;48.552;9.380;2022-09-12T01:08:24;12.88;84.46
62464;SHT31;48512;48.552;9.380;2022-09-12T01:10:50;12.89;84.19
62464;SHT31;48512;48.552;9.380;2022-09-12T01:13:16;12.76;84.41
62464;SHT31;48512;48.552;9.380;2022-09-12T01:15:42;12.78;84.48
62464;SHT31;48512;48.552;9.380;2022-09-12T01:18:31;12.63;84.75
62464;SHT31;48512;48.552;9.380;2022-09-12T01:35:01;12.18;85.44
62464;SHT31;48512;48.552;9.380;2022-09-12T01:40:19;12.01;85.74
62464;SHT31;48512;48.552;9.380;2022-09-12T01:43:12;11.90;86.07
62464;SHT31;48512;48.552;9.380;2022-09-12T01:45:43;11.72;86.46
62464;SHT31;48512;48.552;9.380;2022-09-12T01:50:41;11.69;86.58
62464;SHT31;48512;48.552;9.380;2022-09-12T01:53:16;11.69;86.37
62464;SHT31;48512;48.552;9.380;2022-09-12T01:55:58;11.76;86.20
62464;SHT31;48512;48.552;9.380;2022-09-12T01:58:46;11.90;85.70
62464;SHT31;48512;48.552;9.380;2022-09-12T02:01:24;11.82;85.74
62464;SHT31;48512;48.552;9.380;2022-09-12T02:03:56;11.65;85.96
62464;SHT31;48512;48.552;9.380;2022-09-12T02:06:31;11.56;86.37
62464;SHT31;48512;48.552;9.380;2022-09-12T02:09:04;11.48;86.44
62464;SHT31;48512;48.552;9.380;2022-09-12T02:11:34;11.39;86.60
62464;SHT31;48512;48.552;9.380;2022-09-12T02:14:06;11.32;86.70
62464;SHT31;48512;48.552;9.380;2022-09-12T02:16:37;11.21;87.29
62464;SHT31;48512;48.552;9.380;2022-09-12T02:19:19;11.22;87.57
62464;SHT31;48512;48.552;9.380;2022-09-12T02:21:53;11.40;86.91
62464;SHT31;48512;48.552;9.380;2022-09-12T02:24:21;11.36;86.86
62464;SHT31;48512;48.552;9.380;2022-09-12T02:26:53;11.36;86.99
62464;SHT31;48512;48.552;9.380;2022-09-12T02:29:19;11.39;86.68
62464;SHT31;48512;48.552;9.380;2022-09-12T02:31:47;11.31;87.08
62464;SHT31;48512;48.552;9.380;2022-09-12T02:34:53;11.40;86.77
62464;SHT31;48512;48.552;9.380;2022-09-12T02:37:50;11.32;87.21
62464;SHT31;48512;48.552;9.380;2022-09-12T02:40:18;11.35;86.84
62464;SHT31;48512;48.552;9.380;2022-09-12T02:42:43;11.32;86.66
62464;SHT31;48512;48.552;9.380;2022-09-12T02:45:09;11.25;86.77
62464;SHT31;48512;48.552;9.380;2022-09-12T02:47:52;11.15;86.95
62464;SHT31;48512;48.552;9.380;2022-09-12T02:50:20;11.29;86.43
62464;SHT31;48512;48.552;9.380;2022-09-12T02:52:46;11.12;86.59
62464;SHT31;48512;48.552;9.380;2022-09-12T02:55:12;11.07;86.84
62464;SHT31;48512;48.552;9.380;2022-09-12T02:57:38;11.18;86.45
62464;SHT31;48512;48.552;9.380;2022-09-12T03:00:04;11.19;86.34
62464;SHT31;48512;48.552;9.380;2022-09-12T03:05:32;11.29;85.88
62464;SHT31;48512;48.552;9.380;2022-09-12T03:24:15;11.15;85.53
62464;SHT31;48512;48.552;9.380;2022-09-12T03:29:10;11.11;85.59
62464;SHT31;48512;48.552;9.380;2022-09-12T03:31:36;11.03;85.70
62464;SHT31;48512;48.552;9.380;2022-09-12T03:34:03;10.87;85.89
62464;SHT31;48512;48.552;9.380;2022-09-12T03:36:30;10.91;86.13
62464;SHT31;48512;48.552;9.380;2022-09-12T03:38:56;11.01;85.62
62464;SHT31;48512;48.552;9.380;2022-09-12T03:41:21;11.01;85.74
62464;SHT31;48512;48.552;9.380;2022-09-12T03:43:47;10.84;86.10
62464;SHT31;48512;48.552;9.380;2022-09-12T03:46:13;10.84;86.13
62464;SHT31;48512;48.552;9.380;2022-09-12T03:48:39;10.84;86.71
62464;SHT31;48512;48.552;9.380;2022-09-12T03:51:08;10.77;86.94
62464;SHT31;48512;48.552;9.380;2022-09-12T03:53:34;10.71;86.95
62464;SHT31;48512;48.552;9.380;2022-09-12T03:55:59;10.67;87.29
62464;SHT31;48512;48.552;9.380;2022-09-12T03:58:29;10.73;87.06
62464;SHT31;48512;48.552;9.380;2022-09-12T04:00:55;10.70;87.38
62464;SHT31;48512;48.552;9.380;2022-09-12T04:03:20;10.79;87.03
62464;SHT31;48512;48.552;9.380;2022-09-12T04:05:46;10.70;87.56
62464;SHT31;48512;48.552;9.380;2022-09-12T04:08:12;10.62;87.51
62464;SHT31;48512;48.552;9.380;2022-09-12T04:10:37;10.52;87.49
62464;SHT31;48512;48.552;9.380;2022-09-12T04:13:03;10.55;87.57
62464;SHT31;48512;48.552;9.380;2022-09-12T04:15:28;10.59;87.66
62464;SHT31;48512;48.552;9.380;2022-09-12T04:17:54;10.67;87.52
62464;SHT31;48512;48.552;9.380;2022-09-12T04:20:19;10.74;87.17
62464;SHT31;48512;48.552;9.380;2022-09-12T04:22:44;10.69;87.33
62464;SHT31;48512;48.552;9.380;2022-09-12T04:25:10;10.69;87.10
62464;SHT31;48512;48.552;9.380;2022-09-12T04:27:35;10.63;87.06
62464;SHT31;48512;48.552;9.380;2022-09-12T04:30:02;10.59;87.40
62464;SHT31;48512;48.552;9.380;2022-09-12T04:32:29;10.64;86.95
62464;SHT31;48512;48.552;9.380;2022-09-12T04:34:55;10.48;87.41
62464;SHT31;48512;48.552;9.380;2022-09-12T04:37:21;10.45;87.68
62464;SHT31;48512;48.552;9.380;2022-09-12T04:39:47;10.31;88.16
62464;SHT31;48512;48.552;9.380;2022-09-12T04:42:14;10.29;88.31
62464;SHT31;48512;48.552;9.380;2022-09-12T04:44:39;10.32;88.12
62464;SHT31;48512;48.552;9.380;2022-09-12T04:47:05;10.33;88.00
62464;SHT31;48512;48.552;9.380;2022-09-12T04:49:30;10.25;88.05
62464;SHT31;48512;48.552;9.380;2022-09-12T04:51:55;10.39;87.49
62464;SHT31;48512;48.552;9.380;2022-09-12T04:54:21;10.36;87.58
62464;SHT31;48512;48.552;9.380;2022-09-12T04:56:48;10.22;87.93
62464;SHT31;48512;48.552;9.380;2022-09-12T04:59:19;10.12;88.02
62464;SHT31;48512;48.552;9.380;2022-09-12T05:01:45;10.16;87.94
62464;SHT31;48512;48.552;9.380;2022-09-12T05:04:11;10.09;88.01
62464;SHT31;48512;48.552;9.380;2022-09-12T05:06:38;10.11;88.44
62464;SHT31;48512;48.552;9.380;2022-09-12T05:09:05;10.16;88.16
62464;SHT31;48512;48.552;9.380;2022-09-12T05:11:35;10.16;88.11
62464;SHT31;48512;48.552;9.380;2022-09-12T05:14:01;10.19;88.26
62464;SHT31;48512;48.552;9.380;2022-09-12T05:16:27;10.15;88.57
62464;SHT31;48512;48.552;9.380;2022-09-12T05:18:54;10.15;88.24
62464;SHT31;48512;48.552;9.380;2022-09-12T05:21:21;10.14;88.30
62464;SHT31;48512;48.552;9.380;2022-09-12T05:23:51;10.12;88.32
62464;SHT31;48512;48.552;9.380;2022-09-12T05:26:17;10.18;88.15
62464;SHT31;48512;48.552;9.380;2022-09-12T05:28:45;10.19;88.24
62464;SHT31;48512;48.552;9.380;2022-09-12T05:31:18;10.08;88.48
62464;SHT31;48512;48.552;9.380;2022-09-12T05:33:46;11.29;97.07
62464;SHT31;48512;48.552;9.380;2022-09-12T05:36:14;11.58;90.33
62464;SHT31;48512;48.552;9.380;2022-09-12T05:38:40;11.19;85.87
62464;SHT31;48512;48.552;9.380;2022-09-12T05:41:06;11.12;85.35
62464;SHT31;48512;48.552;9.380;2022-09-12T05:43:35;10.97;85.56
62464;SHT31;48512;48.552;9.380;2022-09-12T05:46:06;10.74;86.24
62464;SHT31;48512;48.552;9.380;2022-09-12T05:48:36;10.62;86.75
62464;SHT31;48512;48.552;9.380;2022-09-12T05:51:05;10.53;87.13
62464;SHT31;48512;48.552;9.380;2022-09-12T05:53:34;10.43;87.47
62464;SHT31;48512;48.552;9.380;2022-09-12T05:56:02;10.35;87.65
62464;SHT31;48512;48.552;9.380;2022-09-12T05:58:28;10.25;87.91
62464;SHT31;48512;48.552;9.380;2022-09-12T06:00:53;10.45;88.88
62464;SHT31;48512;48.552;9.380;2022-09-12T06:03:20;10.50;87.95
62464;SHT31;48512;48.552;9.380;2022-09-12T06:05:45;10.60;87.73
62464;SHT31;48512;48.552;9.380;2022-09-12T06:08:11;10.67;87.78
62464;SHT31;48512;48.552;9.380;2022-09-12T06:10:36;10.63;88.38
62464;SHT31;48512;48.552;9.380;2022-09-12T06:13:01;10.74;88.32
62464;SHT31;48512;48.552;9.380;2022-09-12T06:15:28;10.80;88.98
62464;SHT31;48512;48.552;9.380;2022-09-12T06:17:53;10.83;89.20
62464;SHT31;48512;48.552;9.380;2022-09-12T06:20:19;10.90;89.14
62464;SHT31;48512;48.552;9.380;2022-09-12T06:22:45;10.97;89.61
62464;SHT31;48512;48.552;9.380;2022-09-12T06:25:12;11.10;89.22
62464;SHT31;48512;48.552;9.380;2022-09-12T06:27:38;11.14;89.44
62464;SHT31;48512;48.552;9.380;2022-09-12T06:30:04;11.18;89.76
62464;SHT31;48512;48.552;9.380;2022-09-12T06:32:31;11.27;89.71
62464;SHT31;48512;48.552;9.380;2022-09-12T06:34:56;11.32;90.12
62464;SHT31;48512;48.552;9.380;2022-09-12T06:37:22;11.39;90.12
62464;SHT31;48512;48.552;9.380;2022-09-12T06:39:47;11.51;90.63
62464;SHT31;48512;48.552;9.380;2022-09-12T06:42:12;11.59;90.68
62464;SHT31;48512;48.552;9.380;2022-09-12T06:44:39;11.70;91.22
62464;SHT31;48512;48.552;9.380;2022-09-12T06:47:05;11.77;91.10
62464;SHT31;48512;48.552;9.380;2022-09-12T06:49:31;11.84;91.24
62464;SHT31;48512;48.552;9.380;2022-09-12T06:51:57;11.94;91.28
62464;SHT31;48512;48.552;9.380;2022-09-12T06:54:23;12.03;91.47
62464;SHT31;48512;48.552;9.380;2022-09-12T06:56:50;12.10;91.61
62464;SHT31;48512;48.552;9.380;2022-09-12T06:59:16;12.14;91.64
62464;SHT31;48512;48.552;9.380;2022-09-12T07:01:41;12.27;91.59
62464;SHT31;48512;48.552;9.380;2022-09-12T07:04:07;12.31;91.76
62464;SHT31;48512;48.552;9.380;2022-09-12T07:06:38;12.48;92.00
62464;SHT31;48512;48.552;9.380;2022-09-12T07:09:06;12.51;91.66
62464;SHT31;48512;48.552;9.380;2022-09-12T07:11:35;12.59;91.68
62464;SHT31;48512;48.552;9.380;2022-09-12T07:14:02;12.76;91.50
62464;SHT31;48512;48.552;9.380;2022-09-12T07:16:28;12.82;91.63
62464;SHT31;48512;48.552;9.380;2022-09-12T07:18:58;12.97;91.54
62464;SHT31;48512;48.552;9.380;2022-09-12T07:21:24;13.06;91.55
62464;SHT31;48512;48.552;9.380;2022-09-12T07:23:50;13.14;91.32
62464;SHT31;48512;48.552;9.380;2022-09-12T07:26:26;13.21;90.89
62464;SHT31;48512;48.552;9.380;2022-09-12T07:28:54;13.30;90.86
62464;SHT31;48512;48.552;9.380;2022-09-12T07:31:22;13.43;90.61
62464;SHT31;48512;48.552;9.380;2022-09-12T07:33:48;13.54;90.18
62464;SHT31;48512;48.552;9.380;2022-09-12T07:36:18;13.66;89.62
62464;SHT31;48512;48.552;9.380;2022-09-12T07:38:44;13.72;89.52
62464;SHT31;48512;48.552;9.380;2022-09-12T07:43:36;13.89;89.11
62464;SHT31;48512;48.552;9.380;2022-09-12T07:46:01;14.01;88.78
62464;SHT31;48512;48.552;9.380;2022-09-12T07:48:27;14.06;88.35
62464;SHT31;48512;48.552;9.380;2022-09-12T07:51:00;14.20;87.74
62464;SHT31;48512;48.552;9.380;2022-09-12T07:53:30;14.26;87.73
62464;SHT31;48512;48.552;9.380;2022-09-12T07:55:56;14.40;87.51
62464;SHT31;48512;48.552;9.380;2022-09-12T07:58:23;14.47;86.81
62464;SHT31;48512;48.552;9.380;2022-09-12T08:00:48;14.50;86.88
62464;SHT31;48512;48.552;9.380;2022-09-12T08:03:14;14.64;86.77
62464;SHT31;48512;48.552;9.380;2022-09-12T08:05:39;14.82;86.54
62464;SHT31;48512;48.552;9.380;2022-09-12T08:08:05;14.98;85.68
62464;SHT31;48512;48.552;9.380;2022-09-12T08:10:30;15.18;85.91
62464;SHT31;48512;48.552;9.380;2022-09-12T08:12:56;15.22;86.22
62464;SHT31;48512;48.552;9.380;2022-09-12T08:15:22;15.37;86.01
62464;SHT31;48512;48.552;9.380;2022-09-12T08:17:47;15.51;85.58
62464;SHT31;48512;48.552;9.380;2022-09-12T08:20:13;15.64;85.73
62464;SHT31;48512;48.552;9.380;2022-09-12T08:22:38;15.77;85.94
62464;SHT31;48512;48.552;9.380;2022-09-12T08:25:05;15.94;84.62
62464;SHT31;48512;48.552;9.380;2022-09-12T08:27:30;16.08;84.31
62464;SHT31;48512;48.552;9.380;2022-09-12T08:29:56;16.21;83.78
62464;SHT31;48512;48.552;9.380;2022-09-12T08:32:21;16.29;83.84
62464;SHT31;48512;48.552;9.380;2022-09-12T08:34:47;16.52;83.76
62464;SHT31;48512;48.552;9.380;2022-09-12T08:37:12;16.63;83.38
62464;SHT31;48512;48.552;9.380;2022-09-12T08:39:37;16.83;82.56
62464;SHT31;48512;48.552;9.380;2022-09-12T08:42:04;17.03;82.03
62464;SHT31;48512;48.552;9.380;2022-09-12T08:50:03;17.52;80.78
62464;SHT31;48512;48.552;9.380;2022-09-12T08:52:50;17.67;80.32
62464;SHT31;48512;48.552;9.380;2022-09-12T08:57:52;17.93;80.23
62464;SHT31;48512;48.552;9.380;2022-09-12T09:00:18;18.05;79.42
62464;SHT31;48512;48.552;9.380;2022-09-12T09:05:47;18.37;78.40
62464;SHT31;48512;48.552;9.380;2022-09-12T09:16:37;19.36;76.44
62464;SHT31;48512;48.552;9.380;2022-09-12T09:19:12;19.52;75.37
62464;SHT31;48512;48.552;9.380;2022-09-12T09:24:15;19.90;74.10
62464;SHT31;48512;48.552;9.380;2022-09-12T09:27:00;20.03;73.10
62464;SHT31;48512;48.552;9.380;2022-09-12T09:29:34;20.33;72.39
62464;SHT31;48512;48.552;9.380;2022-09-12T09:32:03;20.43;71.70
62464;SHT31;48512;48.552;9.380;2022-09-12T09:34:34;20.67;71.15
62464;SHT31;48512;48.552;9.380;2022-09-12T09:45:14;21.24;68.75
62464;SHT31;48512;48.552;9.380;2022-09-12T09:47:43;21.51;69.76
62464;SHT31;48512;48.552;9.380;2022-09-12T09:50:13;21.58;69.05
62464;SHT31;48512;48.552;9.380;2022-09-12T09:52:41;22.06;67.99
62464;SHT31;48512;48.552;9.380;2022-09-12T09:55:12;22.32;68.25
62464;SHT31;48512;48.552;9.380;2022-09-12T09:57:40;22.40;65.95
62464;SHT31;48512;48.552;9.380;2022-09-12T10:00:25;22.70;65.24
62464;SHT31;48512;48.552;9.380;2022-09-12T10:05:47;22.43;66.26
62464;SHT31;48512;48.552;9.380;2022-09-12T10:08:33;22.59;64.15
62464;SHT31;48512;48.552;9.380;2022-09-12T10:13:40;23.26;63.05
62464;SHT31;48512;48.552;9.380;2022-09-12T10:16:20;23.66;62.67
62464;SHT31;48512;48.552;9.380;2022-09-12T10:18:47;23.63;62.48
62464;SHT31;48512;48.552;9.380;2022-09-12T10:23:52;23.77;60.76
62464;SHT31;48512;48.552;9.380;2022-09-12T10:26:21;24.04;60.18
62464;SHT31;48512;48.552;9.380;2022-09-12T10:28:53;24.34;59.81
62464;SHT31;48512;48.552;9.380;2022-09-12T10:31:25;24.38;58.97
62464;SHT31;48512;48.552;9.380;2022-09-12T10:33:55;24.99;57.62
62464;SHT31;48512;48.552;9.380;2022-09-12T10:36:22;24.58;58.78
62464;SHT31;48512;48.552;9.380;2022-09-12T10:38:56;24.97;57.83
62464;SHT31;48512;48.552;9.380;2022-09-12T10:41:23;25.61;57.20
62464;SHT31;48512;48.552;9.380;2022-09-12T10:43:49;25.31;56.04
62464;SHT31;48512;48.552;9.380;2022-09-12T10:54:09;25.74;54.76
62464;SHT31;48512;48.552;9.380;2022-09-12T11:07:25;27.43;49.75
62464;SHT31;48512;48.552;9.380;2022-09-12T11:21:00;28.00;48.01
62464;SHT31;48512;48.552;9.380;2022-09-12T11:23:59;28.64;47.52
62464;SHT31;48512;48.552;9.380;2022-09-12T11:32:09;28.81;44.18
62464;SHT31;48512;48.552;9.380;2022-09-12T11:42:59;29.04;43.73
62464;SHT31;48512;48.552;9.380;2022-09-12T11:45:38;29.59;43.33
62464;SHT31;48512;48.552;9.380;2022-09-12T11:48:10;29.63;42.44
62464;SHT31;48512;48.552;9.380;2022-09-12T11:50:37;29.48;43.05
62464;SHT31;48512;48.552;9.380;2022-09-12T11:53:14;30.11;42.65
62464;SHT31;48512;48.552;9.380;2022-09-12T11:55:52;29.67;43.10
62464;SHT31;48512;48.552;9.380;2022-09-12T11:58:22;30.14;40.89
62464;SHT31;48512;48.552;9.380;2022-09-12T12:00:51;29.55;42.49
62464;SHT31;48512;48.552;9.380;2022-09-12T12:03:45;30.32;43.09
62464;SHT31;48512;48.552;9.380;2022-09-12T12:08:44;29.46;41.98
62464;SHT31;48512;48.552;9.380;2022-09-12T12:11:43;30.08;40.94
62464;SHT31;48512;48.552;9.380;2022-09-12T12:14:19;29.25;41.59
62464;SHT31;48512;48.552;9.380;2022-09-12T12:16:46;30.13;38.51
62464;SHT31;48512;48.552;9.380;2022-09-12T12:21:47;30.85;34.62
62464;SHT31;48512;48.552;9.380;2022-09-12T12:24:25;31.27;34.00
62464;SHT31;48512;48.552;9.380;2022-09-12T12:26:56;30.87;37.06
62464;SHT31;48512;48.552;9.380;2022-09-12T12:36:59;30.92;34.25
62464;SHT31;48512;48.552;9.380;2022-09-12T12:39:55;31.45;33.13
62464;SHT31;48512;48.552;9.380;2022-09-12T12:53:04;31.42;32.93
62464;SHT31;48512;48.552;9.380;2022-09-12T12:55:30;31.55;32.64
62464;SHT31;48512;48.552;9.380;2022-09-12T12:57:58;32.25;32.27
62464;SHT31;48512;48.552;9.380;2022-09-12T13:05:26;32.75;29.84
62464;SHT31;48512;48.552;9.380;2022-09-12T13:07:55;32.84;32.23
62464;SHT31;48512;48.552;9.380;2022-09-12T13:10:23;32.82;29.51
62464;SHT31;48512;48.552;9.380;2022-09-12T13:12:53;32.74;29.66
62464;SHT31;48512;48.552;9.380;2022-09-12T13:18:44;32.32;29.91
62464;SHT31;48512;48.552;9.380;2022-09-12T13:23:26;32.77;30.49
62464;SHT31;48512;48.552;9.380;2022-09-12T13:25:54;33.36;29.99
62464;SHT31;48512;48.552;9.380;2022-09-12T13:28:20;33.32;31.44
62464;SHT31;48512;48.552;9.380;2022-09-12T13:31:25;33.77;27.61
62464;SHT31;48512;48.552;9.380;2022-09-12T13:33:58;33.45;29.20
62464;SHT31;48512;48.552;9.380;2022-09-12T13:39:46;33.62;27.97
62464;SHT31;48512;48.552;9.380;2022-09-12T13:47:40;33.65;27.59
62464;SHT31;48512;48.552;9.380;2022-09-12T13:50:07;33.69;28.53
62464;SHT31;48512;48.552;9.380;2022-09-12T13:52:37;34.08;27.12
62464;SHT31;48512;48.552;9.380;2022-09-12T13:55:17;33.65;27.76
62464;SHT31;48512;48.552;9.380;2022-09-12T13:57:55;33.56;26.46
62464;SHT31;48512;48.552;9.380;2022-09-12T14:00:21;33.35;28.34
62464;SHT31;48512;48.552;9.380;2022-09-12T14:02:47;33.14;27.45
62464;SHT31;48512;48.552;9.380;2022-09-12T14:05:19;33.43;28.01
62464;SHT31;48512;48.552;9.380;2022-09-12T14:07:57;33.08;27.83
62464;SHT31;48512;48.552;9.380;2022-09-12T14:10:31;32.61;27.08
62464;SHT31;48512;48.552;9.380;2022-09-12T14:12:58;32.29;28.64
62464;SHT31;48512;48.552;9.380;2022-09-12T14:15:29;32.30;27.70
62464;SHT31;48512;48.552;9.380;2022-09-12T14:17:57;32.85;27.67
62464;SHT31;48512;48.552;9.380;2022-09-12T14:20:29;33.18;27.47
62464;SHT31;48512;48.552;9.380;2022-09-12T14:23:03;33.04;27.36
62464;SHT31;48512;48.552;9.380;2022-09-12T14:25:35;33.38;26.55
62464;SHT31;48512;48.552;9.380;2022-09-12T14:28:02;32.77;26.21
62464;SHT31;48512;48.552;9.380;2022-09-12T14:30:29;32.63;27.05
62464;SHT31;48512;48.552;9.380;2022-09-12T14:35:33;32.85;27.94
62464;SHT31;48512;48.552;9.380;2022-09-12T14:38:07;32.54;26.59
62464;SHT31;48512;48.552;9.380;2022-09-12T14:40:40;32.73;27.27
62464;SHT31;48512;48.552;9.380;2022-09-12T14:43:20;32.59;27.32
62464;SHT31;48512;48.552;9.380;2022-09-12T14:45:57;32.36;27.54
62464;SHT31;48512;48.552;9.380;2022-09-12T14:48:24;31.78;28.36
62464;SHT31;48512;48.552;9.380;2022-09-12T14:50:51;31.61;28.61
62464;SHT31;48512;48.552;9.380;2022-09-12T14:55:50;32.50;27.63
62464;SHT31;48512;48.552;9.380;2022-09-12T15:05:56;32.46;28.03
62464;SHT31;48512;48.552;9.380;2022-09-12T15:08:23;32.34;29.63
62464;SHT31;48512;48.552;9.380;2022-09-12T15:10:49;32.49;28.50
62464;SHT31;48512;48.552;9.380;2022-09-12T15:13:17;32.81;28.32
62464;SHT31;48512;48.552;9.380;2022-09-12T15:15:49;32.81;29.09
62464;SHT31;48512;48.552;9.380;2022-09-12T15:18:15;32.85;28.26
62464;SHT31;48512;48.552;9.380;2022-09-12T15:20:42;32.90;27.63
62464;SHT31;48512;48.552;9.380;2022-09-12T15:23:19;32.74;28.06
62464;SHT31;48512;48.552;9.380;2022-09-12T15:25:46;32.90;27.70
62464;SHT31;48512;48.552;9.380;2022-09-12T15:28:17;32.67;27.58
62464;SHT31;48512;48.552;9.380;2022-09-12T15:30:43;32.71;27.82
62464;SHT31;48512;48.552;9.380;2022-09-12T15:33:10;32.47;27.63
62464;SHT31;48512;48.552;9.380;2022-09-12T15:35:36;32.52;28.48
62464;SHT31;48512;48.552;9.380;2022-09-12T15:38:01;32.59;29.15
62464;SHT31;48512;48.552;9.380;2022-09-12T15:40:27;32.49;28.46
62464;SHT31;48512;48.552;9.380;2022-09-12T15:42:52;32.44;29.33
62464;SHT31;48512;48.552;9.380;2022-09-12T15:45:21;32.64;29.04
62464;SHT31;48512;48.552;9.380;2022-09-12T15:47:47;32.74;28.33
62464;SHT31;48512;48.552;9.380;2022-09-12T15:50:13;32.75;30.08
62464;SHT31;48512;48.552;9.380;2022-09-12T15:52:38;32.44;29.38
62464;SHT31;48512;48.552;9.380;2022-09-12T15:55:05;32.60;28.57
62464;SHT31;48512;48.552;9.380;2022-09-12T15:57:34;32.70;29.05
62464;SHT31;48512;48.552;9.380;2022-09-12T15:59:59;32.37;31.23
62464;SHT31;48512;48.552;9.380;2022-09-12T16:02:25;32.36;32.21
62464;SHT31;48512;48.552;9.380;2022-09-12T16:04:50;31.51;33.87
62464;SHT31;48512;48.552;9.380;2022-09-12T16:07:18;31.58;34.18
62464;SHT31;48512;48.552;9.380;2022-09-12T16:09:44;31.45;33.27
62464;SHT31;48512;48.552;9.380;2022-09-12T16:12:10;31.55;34.04
62464;SHT31;48512;48.552;9.380;2022-09-12T16:14:35;31.58;34.96
62464;SHT31;48512;48.552;9.380;2022-09-12T16:17:01;31.72;34.35
62464;SHT31;48512;48.552;9.380;2022-09-12T16:19:26;31.52;34.85
62464;SHT31;48512;48.552;9.380;2022-09-12T16:21:51;31.51;35.35
62464;SHT31;48512;48.552;9.380;2022-09-12T16:24:17;31.24;35.34
62464;SHT31;48512;48.552;9.380;2022-09-12T16:26:42;30.80;35.98
62464;SHT31;48512;48.552;9.380;2022-09-12T16:29:10;30.51;36.26
62464;SHT31;48512;48.552;9.380;2022-09-12T16:31:36;30.25;36.16
62464;SHT31;48512;48.552;9.380;2022-09-12T16:34:03;29.94;36.26
62464;SHT31;48512;48.552;9.380;2022-09-12T16:36:28;29.67;36.50
62464;SHT31;48512;48.552;9.380;2022-09-12T16:38:54;29.49;37.12
62464;SHT31;48512;48.552;9.380;2022-09-12T16:41:21;29.49;37.22
62464;SHT31;48512;48.552;9.380;2022-09-12T16:43:49;29.28;37.21
62464;SHT31;48512;48.552;9.380;2022-09-12T16:46:20;29.08;37.94
62464;SHT31;48512;48.552;9.380;2022-09-12T16:48:48;28.80;38.77
62464;SHT31;48512;48.552;9.380;2022-09-12T16:51:15;28.32;40.29
62464;SHT31;48512;48.552;9.380;2022-09-12T16:53:41;28.22;41.11
62464;SHT31;48512;48.552;9.380;2022-09-12T16:56:08;27.95;42.03
62464;SHT31;48512;48.552;9.380;2022-09-12T16:58:37;27.85;42.68
62464;SHT31;48512;48.552;9.380;2022-09-12T17:01:09;27.46;43.39
62464;SHT31;48512;48.552;9.380;2022-09-12T17:03:35;27.25;43.88
62464;SHT31;48512;48.552;9.380;2022-09-12T17:06:06;26.89;44.61
62464;SHT31;48512;48.552;9.380;2022-09-12T17:08:40;26.57;45.29
62464;SHT31;48512;48.552;9.380;2022-09-12T17:11:07;26.30;45.77
62464;SHT31;48512;48.552;9.380;2022-09-12T17:13:33;26.03;46.52
62464;SHT31;48512;48.552;9.380;2022-09-12T17:15:59;25.96;46.89
62464;SHT31;48512;48.552;9.380;2022-09-12T17:18:25;25.82;47.31
62464;SHT31;48512;48.552;9.380;2022-09-12T17:20:50;25.66;47.68
62464;SHT31;48512;48.552;9.380;2022-09-12T17:23:16;25.64;47.90
62464;SHT31;48512;48.552;9.380;2022-09-12T17:25:49;25.37;48.51
62464;SHT31;48512;48.552;9.380;2022-09-12T17:28:16;25.06;49.26
62464;SHT31;48512;48.552;9.380;2022-09-12T17:30:42;24.72;50.06
62464;SHT31;48512;48.552;9.380;2022-09-12T17:33:07;24.58;50.35
62464;SHT31;48512;48.552;9.380;2022-09-12T17:35:33;24.29;50.81
62464;SHT31;48512;48.552;9.380;2022-09-12T17:37:59;23.74;52.33
62464;SHT31;48512;48.552;9.380;2022-09-12T17:40:24;23.50;52.82
62464;SHT31;48512;48.552;9.380;2022-09-12T17:42:50;23.28;53.08
62464;SHT31;48512;48.552;9.380;2022-09-12T17:45:15;23.10;53.41
62464;SHT31;48512;48.552;9.380;2022-09-12T17:47:41;22.74;54.37
62464;SHT31;48512;48.552;9.380;2022-09-12T17:50:07;22.56;54.76
62464;SHT31;48512;48.552;9.380;2022-09-12T17:52:34;22.36;55.08
62464;SHT31;48512;48.552;9.380;2022-09-12T17:54:59;22.25;55.47
62464;SHT31;48512;48.552;9.380;2022-09-12T17:57:25;22.13;55.87
62464;SHT31;48512;48.552;9.380;2022-09-12T17:59:50;22.04;56.39
62464;SHT31;48512;48.552;9.380;2022-09-12T18:02:16;21.84;57.07
62464;SHT31;48512;48.552;9.380;2022-09-12T18:04:43;21.71;57.01
62464;SHT31;48512;48.552;9.380;2022-09-12T18:07:16;21.74;56.50
62464;SHT31;48512;48.552;9.380;2022-09-12T18:09:45;21.62;56.49
62464;SHT31;48512;48.552;9.380;2022-09-12T18:12:14;21.58;56.58
62464;SHT31;48512;48.552;9.380;2022-09-12T18:14:40;21.50;57.05
62464;SHT31;48512;48.552;9.380;2022-09-12T18:17:06;21.34;57.44
62464;SHT31;48512;48.552;9.380;2022-09-12T18:19:33;21.22;57.71
62464;SHT31;48512;48.552;9.380;2022-09-12T18:21:58;21.13;57.85
62464;SHT31;48512;48.552;9.380;2022-09-12T18:24:24;21.07;57.92
62464;SHT31;48512;48.552;9.380;2022-09-12T18:26:50;21.05;57.99
62464;SHT31;48512;48.552;9.380;2022-09-12T18:29:16;21.00;58.14
62464;SHT31;48512;48.552;9.380;2022-09-12T18:31:42;21.10;57.62
62464;SHT31;48512;48.552;9.380;2022-09-12T18:34:10;21.03;57.44
62464;SHT31;48512;48.552;9.380;2022-09-12T18:36:39;20.93;57.22
62464;SHT31;48512;48.552;9.380;2022-09-12T18:39:05;20.89;57.03
62464;SHT31;48512;48.552;9.380;2022-09-12T18:41:31;20.82;57.16